createdAt,value
2022-10-18T00:01:21.679Z,22.61
2022-10-18T00:04:08.116Z,22.72
2022-10-18T00:06:54.602Z,22.69
2022-10-18T00:09:43.358Z,22.56
2022-10-18T00:12:32.875Z,22.58
2022-10-18T00:15:19.286Z,22.54
2022-10-18T00:18:05.658Z,22.55
2022-10-18T00:21:02.360Z,22.55
2022-10-18T00:23:50.492Z,22.53
2022-10-18T00:26:36.737Z,22.57
2022-10-18T00:29:23.240Z,22.56
2022-10-18T00:32:11.547Z,22.51
2022-10-18T00:34:59.582Z,21.82
2022-10-18T00:37:45.747Z,20.85
2022-10-18T00:40:35.215Z,20.54
2022-10-18T00:43:21.156Z,21.06
2022-10-18T00:46:07.711Z,21.48
2022-10-18T00:48:56.923Z,21.67
2022-10-18T00:51:52.992Z,21.86
2022-10-18T00:54:43.447Z,21.97
2022-10-18T00:57:29.786Z,22.01
2022-10-18T01:00:16.749Z,22.04
2022-10-18T01:03:02.972Z,21.94
2022-10-18T01:05:49.238Z,21.86
2022-10-18T01:09:29.193Z,21.91
2022-10-18T01:12:38.356Z,21.99
2022-10-18T01:15:34.246Z,22.00
2022-10-18T01:18:52.998Z,21.93
2022-10-18T01:22:18.610Z,21.90
2022-10-18T01:26:20.553Z,21.85
2022-10-18T01:29:46.838Z,21.91
2022-10-18T01:32:43.994Z,21.91
2022-10-18T01:35:38.282Z,21.83
2022-10-18T01:38:26.051Z,21.83
2022-10-18T01:41:15.815Z,21.85
2022-10-18T01:44:06.595Z,21.88
2022-10-18T01:46:55.787Z,21.88
2022-10-18T01:49:42.146Z,21.75
2022-10-18T01:52:28.794Z,21.66
2022-10-18T01:55:16.303Z,21.60
2022-10-18T01:58:37.881Z,21.57
2022-10-18T02:01:45.534Z,21.49
2022-10-18T02:04:48.445Z,21.33
2022-10-18T02:08:05.344Z,21.33
2022-10-18T02:11:11.817Z,21.37
2022-10-18T02:14:07.027Z,21.27
2022-10-18T02:17:00.633Z,21.26
2022-10-18T02:19:53.528Z,21.29
2022-10-18T02:22:45.230Z,21.22
2022-10-18T02:25:33.496Z,21.25
2022-10-18T02:28:21.033Z,21.15
2022-10-18T02:31:43.662Z,21.21
2022-10-18T02:34:38.091Z,21.18
2022-10-18T02:37:31.052Z,21.12
2022-10-18T02:40:17.822Z,20.93
2022-10-18T02:43:05.957Z,20.89
2022-10-18T02:45:52.790Z,20.89
2022-10-18T02:48:39.058Z,20.96
2022-10-18T02:51:25.638Z,20.99
2022-10-18T02:54:11.918Z,20.95
2022-10-18T02:56:58.638Z,20.96
2022-10-18T02:59:44.853Z,20.84
2022-10-18T03:02:31.436Z,20.83
2022-10-18T03:05:17.811Z,20.87
2022-10-18T03:08:04.534Z,20.95
2022-10-18T03:10:50.961Z,20.89
2022-10-18T03:13:37.462Z,20.90
2022-10-18T03:16:25.296Z,20.99
2022-10-18T03:19:11.865Z,21.02
2022-10-18T03:21:57.959Z,20.99
2022-10-18T03:24:47.274Z,20.96
2022-10-18T03:27:33.869Z,20.99
2022-10-18T03:30:20.465Z,21.05
2022-10-18T03:33:06.819Z,21.12
2022-10-18T03:35:53.132Z,21.17
2022-10-18T03:38:39.466Z,20.99
2022-10-18T03:41:25.681Z,19.97
2022-10-18T03:44:12.133Z,19.36
2022-10-18T03:47:00.574Z,19.83
2022-10-18T03:49:51.989Z,20.26
2022-10-18T03:52:41.294Z,20.46
2022-10-18T03:55:27.704Z,20.56
2022-10-18T03:58:14.000Z,20.59
2022-10-18T04:01:00.099Z,20.70
2022-10-18T04:03:46.388Z,20.72
2022-10-18T04:06:32.847Z,20.73
2022-10-18T04:09:19.083Z,20.76
2022-10-18T04:12:05.502Z,20.76
2022-10-18T04:14:51.994Z,20.81
2022-10-18T04:17:38.303Z,20.85
2022-10-18T04:20:25.393Z,20.85
2022-10-18T04:23:11.754Z,20.88
2022-10-18T04:25:57.753Z,20.82
2022-10-18T04:28:44.439Z,20.38
2022-10-18T04:31:30.717Z,19.37
2022-10-18T04:34:17.306Z,19.33
2022-10-18T04:37:03.847Z,19.78
2022-10-18T04:39:52.794Z,20.08
2022-10-18T04:42:40.199Z,20.30
2022-10-18T04:45:26.859Z,20.41
2022-10-18T04:48:14.689Z,20.53
2022-10-18T04:51:01.190Z,20.59
2022-10-18T04:53:47.838Z,20.62
2022-10-18T04:56:34.527Z,20.70
2022-10-18T04:59:21.250Z,20.78
2022-10-18T05:02:07.786Z,20.81
2022-10-18T05:04:53.939Z,20.30
2022-10-18T05:07:40.471Z,19.31
2022-10-18T05:10:26.910Z,18.91
2022-10-18T05:13:13.298Z,19.58
2022-10-18T05:16:00.170Z,20.09
2022-10-18T05:18:46.525Z,20.38
2022-10-18T05:21:33.497Z,20.57
2022-10-18T05:24:21.916Z,20.70
2022-10-18T05:27:10.635Z,20.81
2022-10-18T05:29:58.871Z,20.88
2022-10-18T05:32:49.687Z,20.90
2022-10-18T05:35:36.379Z,20.97
2022-10-18T05:38:23.059Z,21.03
2022-10-18T05:41:09.830Z,20.95
2022-10-18T05:43:55.933Z,20.08
2022-10-18T05:46:42.449Z,19.16
2022-10-18T05:49:29.006Z,18.79
2022-10-18T05:52:16.538Z,19.52
2022-10-18T05:55:03.511Z,20.05
2022-10-18T05:57:51.239Z,20.33
2022-10-18T06:00:38.143Z,20.52
2022-10-18T06:03:24.671Z,20.68
2022-10-18T06:06:13.328Z,20.83
2022-10-18T06:08:59.803Z,20.93
2022-10-18T06:11:46.083Z,21.01
2022-10-18T06:14:32.762Z,20.35
2022-10-18T06:17:19.030Z,19.34
2022-10-18T06:20:06.933Z,18.96
2022-10-18T06:22:53.367Z,19.69
2022-10-18T06:25:39.864Z,20.29
2022-10-18T06:28:27.186Z,20.68
2022-10-18T06:31:15.354Z,20.90
2022-10-18T06:34:02.089Z,20.98
2022-10-18T06:36:48.124Z,21.05
2022-10-18T06:39:34.303Z,20.80
2022-10-18T06:42:22.676Z,19.74
2022-10-18T06:45:09.496Z,19.21
2022-10-18T06:47:57.973Z,19.73
2022-10-18T06:50:56.384Z,20.12
2022-10-18T06:53:44.489Z,20.40
2022-10-18T06:56:39.250Z,20.22
2022-10-18T06:59:28.887Z,19.27
2022-10-18T07:02:17.690Z,18.55
2022-10-18T07:05:04.370Z,19.08
2022-10-18T07:07:54.228Z,19.67
2022-10-18T07:10:49.633Z,20.02
2022-10-18T07:13:35.881Z,20.32
2022-10-18T07:16:22.334Z,20.60
2022-10-18T07:19:08.537Z,20.44
2022-10-18T07:21:55.119Z,19.54
2022-10-18T07:24:41.511Z,18.83
2022-10-18T07:27:27.536Z,18.77
2022-10-18T07:30:14.154Z,19.56
2022-10-18T07:33:00.313Z,20.20
2022-10-18T07:35:47.422Z,20.67
2022-10-18T07:38:34.722Z,20.66
2022-10-18T07:41:21.807Z,19.79
2022-10-18T07:44:08.561Z,19.07
2022-10-18T07:46:54.897Z,18.93
2022-10-18T07:49:40.959Z,19.71
2022-10-18T07:52:27.102Z,20.34
2022-10-18T07:55:13.760Z,20.30
2022-10-18T07:58:00.684Z,19.42
2022-10-18T08:00:47.031Z,18.70
2022-10-18T08:03:37.056Z,19.23
2022-10-18T08:06:23.294Z,19.98
2022-10-18T08:09:09.792Z,20.39
2022-10-18T08:11:56.106Z,19.83
2022-10-18T08:14:42.584Z,18.95
2022-10-18T08:17:28.735Z,18.26
2022-10-18T08:20:29.933Z,18.41
2022-10-18T08:23:17.411Z,19.44
2022-10-18T08:26:08.108Z,20.12
2022-10-18T08:29:10.221Z,20.26
2022-10-18T08:32:00.497Z,19.52
2022-10-18T08:34:46.837Z,19.04
2022-10-18T08:37:33.858Z,19.39
2022-10-18T08:40:20.835Z,20.94
2022-10-18T08:43:22.007Z,21.92
2022-10-18T08:46:12.286Z,21.51
2022-10-18T08:49:00.632Z,21.00
2022-10-18T08:51:49.461Z,21.21
2022-10-18T08:54:49.443Z,22.20
2022-10-18T08:57:35.826Z,23.40
2022-10-18T09:00:26.331Z,24.46
2022-10-18T09:03:21.582Z,25.03
2022-10-18T09:06:42.701Z,24.85
2022-10-18T09:10:25.604Z,24.44
2022-10-18T09:13:37.538Z,24.09
2022-10-18T09:17:02.269Z,24.03
2022-10-18T09:20:12.911Z,24.30
2022-10-18T09:23:30.000Z,25.25
2022-10-18T09:26:22.525Z,26.63
2022-10-18T09:32:22.181Z,27.34
2022-10-18T09:35:19.478Z,26.92
2022-10-18T09:38:10.858Z,26.71
2022-10-18T09:41:09.151Z,26.65
2022-10-18T09:44:15.080Z,26.58
2022-10-18T09:47:34.426Z,26.13
2022-10-18T09:50:54.107Z,25.65
2022-10-18T09:53:45.332Z,25.88
2022-10-18T09:56:57.514Z,27.22
2022-10-18T09:59:48.627Z,28.83
2022-10-18T10:02:35.049Z,29.90
2022-10-18T10:05:21.323Z,31.44
2022-10-18T10:08:08.102Z,32.91
2022-10-18T10:10:54.300Z,33.97
2022-10-18T10:13:40.548Z,34.90
2022-10-18T10:16:27.483Z,35.32
2022-10-18T10:19:34.368Z,35.39
2022-10-18T10:22:33.533Z,35.63
2022-10-18T10:25:35.533Z,35.19
2022-10-18T10:28:28.137Z,33.64
2022-10-18T10:31:23.699Z,31.95
2022-10-18T10:34:12.781Z,30.49
2022-10-18T10:36:59.085Z,29.39
2022-10-18T10:40:00.684Z,28.52
2022-10-18T10:43:33.082Z,27.42
2022-10-18T10:46:22.681Z,26.56
2022-10-18T10:49:41.189Z,26.11
2022-10-18T10:52:29.158Z,25.46
2022-10-18T10:55:34.772Z,24.77
2022-10-18T10:58:22.656Z,23.90
2022-10-18T11:01:22.278Z,23.05
2022-10-18T11:04:30.314Z,22.25
2022-10-18T11:07:19.737Z,21.51
2022-10-18T11:10:09.054Z,20.98
2022-10-18T11:13:02.084Z,20.54
2022-10-18T11:16:05.221Z,20.15
2022-10-18T11:18:54.028Z,19.76
2022-10-18T11:21:41.242Z,19.43
2022-10-18T11:24:28.021Z,19.22
2022-10-18T11:27:24.933Z,19.00
2022-10-18T11:30:38.712Z,18.72
2022-10-18T11:34:08.275Z,18.43
2022-10-18T11:37:28.530Z,18.14
2022-10-18T11:40:53.118Z,17.85
2022-10-18T11:44:02.983Z,17.62
2022-10-18T11:47:18.923Z,17.44
2022-10-18T11:50:26.854Z,17.28
2022-10-18T11:53:24.709Z,17.13
2022-10-18T11:56:32.354Z,17.01
2022-10-18T11:59:37.750Z,16.88
2022-10-18T12:03:04.519Z,16.73
2022-10-18T12:05:53.704Z,16.55
2022-10-18T12:08:47.795Z,16.42
2022-10-18T12:11:46.840Z,16.29
2022-10-18T12:14:45.225Z,16.17
2022-10-18T12:17:46.158Z,16.07
2022-10-18T12:20:45.741Z,15.95
2022-10-18T12:23:59.564Z,15.86
2022-10-18T12:26:50.184Z,15.77
2022-10-18T12:29:50.510Z,15.69
2022-10-18T12:32:38.511Z,15.62
2022-10-18T12:35:34.477Z,15.57
2022-10-18T12:38:36.570Z,15.52
2022-10-18T12:41:35.261Z,15.45
2022-10-18T12:44:34.344Z,15.37
2022-10-18T12:47:25.033Z,15.33
2022-10-18T12:50:29.547Z,15.30
2022-10-18T12:53:26.082Z,15.28
2022-10-18T12:56:27.347Z,15.25
2022-10-18T12:59:13.829Z,15.21
2022-10-18T13:01:59.996Z,15.51
2022-10-18T13:04:48.262Z,16.94
2022-10-18T13:07:40.403Z,18.00
2022-10-18T13:10:35.574Z,18.26
2022-10-18T13:13:40.609Z,17.51
2022-10-18T13:16:42.156Z,16.90
2022-10-18T13:19:58.269Z,16.53
2022-10-18T13:23:23.422Z,16.25
2022-10-18T13:26:17.730Z,16.07
2022-10-18T13:29:48.736Z,15.94
2022-10-18T13:32:57.370Z,15.80
2022-10-18T13:35:52.247Z,16.17
2022-10-18T13:38:55.077Z,17.42
2022-10-18T13:41:41.637Z,18.38
2022-10-18T13:44:37.929Z,18.62
2022-10-18T13:47:36.744Z,17.86
2022-10-18T13:50:37.742Z,17.17
2022-10-18T13:54:06.266Z,16.70
2022-10-18T13:58:00.762Z,16.27
2022-10-18T14:01:14.357Z,16.72
2022-10-18T14:04:00.674Z,17.93
2022-10-18T14:06:48.003Z,18.64
2022-10-18T14:09:56.121Z,18.82
2022-10-18T14:12:51.631Z,17.87
2022-10-18T14:15:42.875Z,17.12
2022-10-18T14:18:36.165Z,16.57
2022-10-18T14:21:33.054Z,16.10
2022-10-18T14:24:24.414Z,15.73
2022-10-18T14:27:24.376Z,15.82
2022-10-18T14:30:18.900Z,16.93
2022-10-18T14:33:05.180Z,17.41
2022-10-18T14:36:10.289Z,16.75
2022-10-18T14:39:03.782Z,16.04
2022-10-18T14:41:53.603Z,15.60
2022-10-18T14:44:40.272Z,15.28
2022-10-18T14:47:30.668Z,15.38
2022-10-18T14:50:30.476Z,16.48
2022-10-18T14:53:24.610Z,17.31
2022-10-18T14:56:25.183Z,17.47
2022-10-18T14:59:19.903Z,16.57
2022-10-18T15:02:20.609Z,15.87
2022-10-18T15:05:20.314Z,15.32
2022-10-18T15:08:08.972Z,15.40
2022-10-18T15:10:56.486Z,16.40
2022-10-18T15:13:53.153Z,17.13
2022-10-18T15:16:40.436Z,17.35
2022-10-18T15:19:41.664Z,16.55
2022-10-18T15:22:32.063Z,15.72
2022-10-18T15:25:35.271Z,15.14
2022-10-18T15:28:30.682Z,15.60
2022-10-18T15:31:24.795Z,16.57
2022-10-18T15:34:25.877Z,17.20
2022-10-18T15:37:26.915Z,17.12
2022-10-18T15:40:22.876Z,16.09
2022-10-18T15:43:39.196Z,15.31
2022-10-18T15:46:32.091Z,15.22
2022-10-18T15:49:24.299Z,16.16
2022-10-18T15:52:19.523Z,16.86
2022-10-18T15:55:30.703Z,17.36
2022-10-18T15:58:46.464Z,17.35
2022-10-18T16:01:44.044Z,16.16
2022-10-18T16:04:32.674Z,15.28
2022-10-18T16:07:18.967Z,15.11
2022-10-18T16:10:13.778Z,16.04
2022-10-18T16:13:00.186Z,16.80
2022-10-18T16:15:47.110Z,16.87
2022-10-18T16:18:33.376Z,15.93
2022-10-18T16:21:30.388Z,15.12
2022-10-18T16:24:17.095Z,14.96
2022-10-18T16:27:10.433Z,15.85
2022-10-18T16:29:57.455Z,16.51
2022-10-18T16:32:43.998Z,16.41
2022-10-18T16:35:30.268Z,15.53
2022-10-18T16:38:35.182Z,15.12
2022-10-18T16:41:23.108Z,15.94
2022-10-18T16:44:10.628Z,16.56
2022-10-18T16:46:56.978Z,16.94
2022-10-18T16:49:44.623Z,17.19
2022-10-18T16:52:31.284Z,16.47
2022-10-18T16:55:24.253Z,15.44
2022-10-18T16:58:17.282Z,15.98
2022-10-18T17:01:06.723Z,16.95
2022-10-18T17:03:55.401Z,16.32
2022-10-18T17:06:41.998Z,15.41
2022-10-18T17:09:28.601Z,15.55
2022-10-18T17:12:15.188Z,16.32
2022-10-18T17:15:01.551Z,16.74
2022-10-18T17:17:49.496Z,16.21
2022-10-18T17:20:35.698Z,15.23
2022-10-18T17:23:22.244Z,14.90
2022-10-18T17:26:28.539Z,15.60
2022-10-18T17:29:16.129Z,16.24
2022-10-18T17:32:03.324Z,16.57
2022-10-18T17:34:49.654Z,16.99
2022-10-18T17:37:37.873Z,16.37
2022-10-18T17:40:26.239Z,15.25
2022-10-18T17:43:13.165Z,14.40
2022-10-18T17:45:59.436Z,14.18
2022-10-18T17:48:46.203Z,15.03
2022-10-18T17:51:32.473Z,15.71
2022-10-18T17:54:18.749Z,16.09
2022-10-18T17:57:06.696Z,16.40
2022-10-18T17:59:54.786Z,16.59
2022-10-18T18:02:42.132Z,16.55
2022-10-18T18:05:35.575Z,15.56
2022-10-18T18:08:25.777Z,14.49
2022-10-18T18:11:14.963Z,14.33
2022-10-18T18:14:01.652Z,15.12
2022-10-18T18:16:48.191Z,15.69
2022-10-18T18:19:34.621Z,16.08
2022-10-18T18:22:21.047Z,16.33
2022-10-18T18:25:09.156Z,16.55
2022-10-18T18:27:55.522Z,16.33
2022-10-18T18:30:41.629Z,15.37
2022-10-18T18:33:28.144Z,14.88
2022-10-18T18:36:14.631Z,15.56
2022-10-18T18:39:01.200Z,16.12
2022-10-18T18:41:50.282Z,16.53
2022-10-18T18:44:39.276Z,16.86
2022-10-18T18:47:34.975Z,16.86
2022-10-18T18:50:21.086Z,15.91
2022-10-18T18:53:08.337Z,15.11
2022-10-18T18:56:04.230Z,15.46
2022-10-18T18:58:52.989Z,16.07
2022-10-18T19:01:41.589Z,16.51
2022-10-18T19:04:28.881Z,16.79
2022-10-18T19:07:16.131Z,16.99
2022-10-18T19:10:03.253Z,16.68
2022-10-18T19:12:49.881Z,15.69
2022-10-18T19:15:36.276Z,14.83
2022-10-18T19:18:23.962Z,14.83
2022-10-18T19:21:10.592Z,15.63
2022-10-18T19:23:58.356Z,16.27
2022-10-18T19:26:50.448Z,16.65
2022-10-18T19:29:39.315Z,16.91
2022-10-18T19:32:26.087Z,16.32
2022-10-18T19:35:12.385Z,15.37
2022-10-18T19:37:58.865Z,15.18
2022-10-18T19:40:45.101Z,15.96
2022-10-18T19:43:31.425Z,16.53
2022-10-18T19:46:18.165Z,16.86
2022-10-18T19:49:04.894Z,17.07
2022-10-18T19:51:51.858Z,17.29
2022-10-18T19:54:38.695Z,17.35
2022-10-18T19:57:25.907Z,16.55
2022-10-18T20:00:17.254Z,15.59
2022-10-18T20:03:05.323Z,15.28
2022-10-18T20:06:00.428Z,16.02
2022-10-18T20:08:47.661Z,16.60
2022-10-18T20:11:34.826Z,17.02
2022-10-18T20:14:22.899Z,17.28
2022-10-18T20:17:12.432Z,17.49
2022-10-18T20:19:58.685Z,17.31
2022-10-18T20:22:45.025Z,16.20
2022-10-18T20:25:31.628Z,15.64
2022-10-18T20:28:18.579Z,16.23
2022-10-18T20:31:09.706Z,16.80
2022-10-18T20:34:03.023Z,17.10
2022-10-18T20:36:49.597Z,17.33
2022-10-18T20:39:36.353Z,17.10
2022-10-18T20:42:22.596Z,16.05
2022-10-18T20:45:10.158Z,15.58
2022-10-18T20:47:56.777Z,16.21
2022-10-18T20:50:45.624Z,16.69
2022-10-18T20:53:33.672Z,17.04
2022-10-18T20:56:22.966Z,17.16
2022-10-18T20:59:10.341Z,16.60
2022-10-18T21:01:56.359Z,15.60
2022-10-18T21:04:42.858Z,15.21
2022-10-18T21:07:30.546Z,15.89
2022-10-18T21:10:17.450Z,16.51
2022-10-18T21:13:03.743Z,16.81
2022-10-18T21:15:57.577Z,17.03
2022-10-18T21:18:44.145Z,17.26
2022-10-18T21:21:31.247Z,17.25
2022-10-18T21:24:19.472Z,16.40
2022-10-18T21:27:06.030Z,15.84
2022-10-18T21:29:52.865Z,16.43
2022-10-18T21:32:39.432Z,16.94
2022-10-18T21:35:25.738Z,17.18
2022-10-18T21:38:12.201Z,16.95
2022-10-18T21:40:58.577Z,15.94
2022-10-18T21:43:51.128Z,15.54
2022-10-18T21:46:38.980Z,16.23
2022-10-18T21:49:27.537Z,16.70
2022-10-18T21:52:13.493Z,16.98
2022-10-18T21:54:59.951Z,17.16
2022-10-18T21:57:49.997Z,17.06
2022-10-18T22:00:40.127Z,16.12
2022-10-18T22:03:30.582Z,15.60
2022-10-18T22:06:23.743Z,16.15
2022-10-18T22:09:13.211Z,16.64
2022-10-18T22:12:00.365Z,16.94
2022-10-18T22:14:47.407Z,17.13
2022-10-18T22:17:33.873Z,16.80
2022-10-18T22:20:20.487Z,15.85
2022-10-18T22:23:06.988Z,15.41
2022-10-18T22:25:53.611Z,16.04
2022-10-18T22:28:42.235Z,16.59
2022-10-18T22:31:32.405Z,16.82
2022-10-18T22:34:28.229Z,16.08
2022-10-18T22:37:14.727Z,15.17
2022-10-18T22:40:00.779Z,15.36
2022-10-18T22:42:47.043Z,16.03
2022-10-18T22:45:33.491Z,16.45
2022-10-18T22:48:20.182Z,16.64
2022-10-18T22:51:08.074Z,16.06
2022-10-18T22:53:54.202Z,15.16
2022-10-18T22:56:40.643Z,15.14
2022-10-18T22:59:26.729Z,15.77
2022-10-18T23:02:13.313Z,16.29
2022-10-18T23:04:59.958Z,16.26
2022-10-18T23:07:49.344Z,15.35
2022-10-18T23:10:42.793Z,14.62
2022-10-18T23:13:31.919Z,15.10
2022-10-18T23:16:20.139Z,15.77
2022-10-18T23:19:06.270Z,16.21
2022-10-18T23:21:52.494Z,16.50
2022-10-18T23:24:38.911Z,16.50
2022-10-18T23:27:25.116Z,15.54
2022-10-18T23:30:11.804Z,14.96
2022-10-18T23:32:58.191Z,15.51
2022-10-18T23:35:44.878Z,15.99
2022-10-18T23:38:31.728Z,16.34
2022-10-18T23:41:18.064Z,16.56
2022-10-18T23:44:04.815Z,16.49
2022-10-18T23:46:51.062Z,15.53
2022-10-18T23:49:37.430Z,14.92
2022-10-18T23:52:24.409Z,15.51
2022-10-18T23:55:10.465Z,16.02
2022-10-18T23:57:56.619Z,16.42
